sensor_id;sensor_type;location;lat;lon;timestamp;P1;durP1;ratioP1;P2;durP2;ratioP2
5117;SDS011;2578;51.622;7.046;2023-02-16T00:00:20;4.77;;;4.27;;
5117;SDS011;2578;51.622;7.046;2023-02-16T00:02:50;4.93;;;3.90;;
5117;SDS011;2578;51.622;7.046;2023-02-16T00:05:30;8.23;;;5.77;;
5117;SDS011;2578;51.622;7.046;2023-02-16T00:07:57;12.33;;;7.37;;
5117;SDS011;2578;51.622;7.046;2023-02-16T00:10:25;3.40;;;3.03;;
5117;SDS011;2578;51.622;7.046;2023-02-16T00:12:51;4.17;;;3.77;;
5117;SDS011;2578;51.622;7.046;2023-02-16T00:15:36;3.83;;;3.47;;
5117;SDS011;2578;51.622;7.046;2023-02-16T00:18:02;12.17;;;5.50;;
5117;SDS011;2578;51.622;7.046;2023-02-16T00:20:31;7.43;;;4.60;;
5117;SDS011;2578;51.622;7.046;2023-02-16T00:22:57;5.60;;;4.20;;
5117;SDS011;2578;51.622;7.046;2023-02-16T00:25:22;5.70;;;5.00;;
5117;SDS011;2578;51.622;7.046;2023-02-16T00:27:48;8.00;;;6.53;;
5117;SDS011;2578;51.622;7.046;2023-02-16T00:30:15;3.57;;;3.27;;
5117;SDS011;2578;51.622;7.046;2023-02-16T00:32:43;12.40;;;6.07;;
5117;SDS011;2578;51.622;7.046;2023-02-16T00:35:13;6.63;;;5.27;;
5117;SDS011;2578;51.622;7.046;2023-02-16T00:37:42;6.57;;;4.93;;
5117;SDS011;2578;51.622;7.046;2023-02-16T00:40:09;6.00;;;5.50;;
5117;SDS011;2578;51.622;7.046;2023-02-16T00:42:36;4.73;;;4.23;;
5117;SDS011;2578;51.622;7.046;2023-02-16T00:45:02;7.77;;;4.33;;
5117;SDS011;2578;51.622;7.046;2023-02-16T00:47:36;15.63;;;8.97;;
5117;SDS011;2578;51.622;7.046;2023-02-16T00:52:50;4.97;;;4.20;;
5117;SDS011;2578;51.622;7.046;2023-02-16T00:58:04;17.10;;;6.67;;
5117;SDS011;2578;51.622;7.046;2023-02-16T01:00:35;10.10;;;7.27;;
5117;SDS011;2578;51.622;7.046;2023-02-16T01:03:05;4.70;;;4.30;;
5117;SDS011;2578;51.622;7.046;2023-02-16T01:05:34;9.37;;;5.90;;
5117;SDS011;2578;51.622;7.046;2023-02-16T01:08:00;30.67;;;14.57;;
5117;SDS011;2578;51.622;7.046;2023-02-16T01:10:44;4.60;;;4.20;;
5117;SDS011;2578;51.622;7.046;2023-02-16T01:13:28;5.43;;;5.03;;
5117;SDS011;2578;51.622;7.046;2023-02-16T01:15:55;5.43;;;4.97;;
5117;SDS011;2578;51.622;7.046;2023-02-16T01:18:21;11.60;;;9.30;;
5117;SDS011;2578;51.622;7.046;2023-02-16T01:20:47;14.67;;;9.07;;
5117;SDS011;2578;51.622;7.046;2023-02-16T01:23:13;8.53;;;6.63;;
5117;SDS011;2578;51.622;7.046;2023-02-16T01:25:38;10.80;;;7.00;;
5117;SDS011;2578;51.622;7.046;2023-02-16T01:28:15;13.53;;;10.73;;
5117;SDS011;2578;51.622;7.046;2023-02-16T01:30:46;16.07;;;7.00;;
5117;SDS011;2578;51.622;7.046;2023-02-16T01:33:12;7.27;;;5.10;;
5117;SDS011;2578;51.622;7.046;2023-02-16T01:35:38;14.33;;;6.93;;
5117;SDS011;2578;51.622;7.046;2023-02-16T01:38:04;7.40;;;6.70;;
5117;SDS011;2578;51.622;7.046;2023-02-16T01:46:32;4.87;;;4.47;;
5117;SDS011;2578;51.622;7.046;2023-02-16T01:48:39;4.60;;;4.20;;
5117;SDS011;2578;51.622;7.046;2023-02-16T01:53:41;8.93;;;7.00;;
5117;SDS011;2578;51.622;7.046;2023-02-16T01:59:15;6.93;;;5.93;;
5117;SDS011;2578;51.622;7.046;2023-02-16T02:04:38;4.90;;;4.50;;
5117;SDS011;2578;51.622;7.046;2023-02-16T02:10:20;7.07;;;6.50;;
5117;SDS011;2578;51.622;7.046;2023-02-16T02:13:12;5.03;;;4.50;;
5117;SDS011;2578;51.622;7.046;2023-02-16T02:15:44;6.00;;;5.50;;
5117;SDS011;2578;51.622;7.046;2023-02-16T02:18:09;5.30;;;4.90;;
5117;SDS011;2578;51.622;7.046;2023-02-16T02:20:56;5.00;;;4.60;;
5117;SDS011;2578;51.622;7.046;2023-02-16T02:27:10;5.60;;;4.83;;
5117;SDS011;2578;51.622;7.046;2023-02-16T02:35:14;12.23;;;7.60;;
5117;SDS011;2578;51.622;7.046;2023-02-16T02:43:19;7.97;;;6.50;;
5117;SDS011;2578;51.622;7.046;2023-02-16T02:45:54;21.20;;;11.83;;
5117;SDS011;2578;51.622;7.046;2023-02-16T02:48:31;5.60;;;5.20;;
5117;SDS011;2578;51.622;7.046;2023-02-16T02:51:02;6.73;;;6.23;;
5117;SDS011;2578;51.622;7.046;2023-02-16T02:56:46;8.50;;;7.73;;
5117;SDS011;2578;51.622;7.046;2023-02-16T02:59:39;11.50;;;8.03;;
5117;SDS011;2578;51.622;7.046;2023-02-16T03:02:29;29.93;;;13.27;;
5117;SDS011;2578;51.622;7.046;2023-02-16T03:04:57;8.53;;;7.17;;
5117;SDS011;2578;51.622;7.046;2023-02-16T03:07:24;12.03;;;7.50;;
5117;SDS011;2578;51.622;7.046;2023-02-16T03:10:11;6.13;;;5.63;;
5117;SDS011;2578;51.622;7.046;2023-02-16T03:13:08;7.43;;;6.73;;
5117;SDS011;2578;51.622;7.046;2023-02-16T03:15:39;6.53;;;5.93;;
5117;SDS011;2578;51.622;7.046;2023-02-16T03:18:06;6.03;;;5.60;;
5117;SDS011;2578;51.622;7.046;2023-02-16T03:20:53;7.30;;;6.60;;
5117;SDS011;2578;51.622;7.046;2023-02-16T03:23:39;17.37;;;8.67;;
5117;SDS011;2578;51.622;7.046;2023-02-16T03:26:24;7.57;;;6.87;;
5117;SDS011;2578;51.622;7.046;2023-02-16T03:29:10;6.03;;;5.53;;
5117;SDS011;2578;51.622;7.046;2023-02-16T03:31:42;7.37;;;6.63;;
5117;SDS011;2578;51.622;7.046;2023-02-16T03:34:09;7.60;;;6.40;;
5117;SDS011;2578;51.622;7.046;2023-02-16T03:36:37;6.10;;;5.60;;
5117;SDS011;2578;51.622;7.046;2023-02-16T03:39:05;7.13;;;5.43;;
5117;SDS011;2578;51.622;7.046;2023-02-16T03:41:32;4.87;;;4.47;;
5117;SDS011;2578;51.622;7.046;2023-02-16T03:44:02;7.10;;;5.30;;
5117;SDS011;2578;51.622;7.046;2023-02-16T03:46:28;6.60;;;6.00;;
5117;SDS011;2578;51.622;7.046;2023-02-16T03:48:54;4.67;;;4.27;;
5117;SDS011;2578;51.622;7.046;2023-02-16T03:51:20;18.23;;;10.70;;
5117;SDS011;2578;51.622;7.046;2023-02-16T03:53:45;8.93;;;7.07;;
5117;SDS011;2578;51.622;7.046;2023-02-16T03:56:11;5.80;;;5.30;;
5117;SDS011;2578;51.622;7.046;2023-02-16T03:58:37;4.20;;;3.80;;
5117;SDS011;2578;51.622;7.046;2023-02-16T04:01:02;5.90;;;5.33;;
5117;SDS011;2578;51.622;7.046;2023-02-16T04:03:28;11.90;;;8.47;;
5117;SDS011;2578;51.622;7.046;2023-02-16T04:05:54;5.43;;;5.00;;
5117;SDS011;2578;51.622;7.046;2023-02-16T04:08:20;13.63;;;8.07;;
5117;SDS011;2578;51.622;7.046;2023-02-16T04:10:46;9.30;;;6.90;;
5117;SDS011;2578;51.622;7.046;2023-02-16T04:13:12;32.20;;;8.70;;
5117;SDS011;2578;51.622;7.046;2023-02-16T04:15:37;8.57;;;7.33;;
5117;SDS011;2578;51.622;7.046;2023-02-16T04:18:03;8.73;;;7.80;;
5117;SDS011;2578;51.622;7.046;2023-02-16T04:20:30;5.40;;;4.57;;
5117;SDS011;2578;51.622;7.046;2023-02-16T04:22:57;4.77;;;4.30;;
5117;SDS011;2578;51.622;7.046;2023-02-16T04:25:22;14.83;;;6.23;;
5117;SDS011;2578;51.622;7.046;2023-02-16T04:27:48;4.67;;;4.27;;
5117;SDS011;2578;51.622;7.046;2023-02-16T04:30:16;11.90;;;8.40;;
5117;SDS011;2578;51.622;7.046;2023-02-16T04:32:50;6.67;;;4.63;;
5117;SDS011;2578;51.622;7.046;2023-02-16T04:35:15;7.53;;;6.17;;
5117;SDS011;2578;51.622;7.046;2023-02-16T04:37:42;14.03;;;6.50;;
5117;SDS011;2578;51.622;7.046;2023-02-16T04:40:08;6.27;;;5.20;;
5117;SDS011;2578;51.622;7.046;2023-02-16T04:42:37;4.60;;;4.20;;
5117;SDS011;2578;51.622;7.046;2023-02-16T04:45:04;4.50;;;4.10;;
5117;SDS011;2578;51.622;7.046;2023-02-16T04:47:29;4.77;;;4.27;;
5117;SDS011;2578;51.622;7.046;2023-02-16T04:49:55;8.23;;;7.43;;
5117;SDS011;2578;51.622;7.046;2023-02-16T04:52:20;10.20;;;8.00;;
5117;SDS011;2578;51.622;7.046;2023-02-16T04:54:46;4.93;;;4.43;;
5117;SDS011;2578;51.622;7.046;2023-02-16T04:57:12;7.70;;;5.67;;
5117;SDS011;2578;51.622;7.046;2023-02-16T04:59:37;6.03;;;4.83;;
5117;SDS011;2578;51.622;7.046;2023-02-16T05:02:03;18.07;;;7.47;;
5117;SDS011;2578;51.622;7.046;2023-02-16T05:04:29;3.40;;;3.10;;
5117;SDS011;2578;51.622;7.046;2023-02-16T05:06:55;9.03;;;6.10;;
5117;SDS011;2578;51.622;7.046;2023-02-16T05:09:20;5.07;;;4.47;;
5117;SDS011;2578;51.622;7.046;2023-02-16T05:11:46;4.53;;;4.13;;
5117;SDS011;2578;51.622;7.046;2023-02-16T05:14:31;7.47;;;5.50;;
5117;SDS011;2578;51.622;7.046;2023-02-16T05:17:09;6.73;;;5.33;;
5117;SDS011;2578;51.622;7.046;2023-02-16T05:19:40;11.07;;;9.20;;
5117;SDS011;2578;51.622;7.046;2023-02-16T05:22:07;13.43;;;7.80;;
5117;SDS011;2578;51.622;7.046;2023-02-16T05:24:34;5.53;;;5.13;;
5117;SDS011;2578;51.622;7.046;2023-02-16T05:27:04;7.93;;;7.23;;
5117;SDS011;2578;51.622;7.046;2023-02-16T05:29:31;5.73;;;5.13;;
5117;SDS011;2578;51.622;7.046;2023-02-16T05:31:57;7.47;;;6.87;;
5117;SDS011;2578;51.622;7.046;2023-02-16T05:34:23;5.03;;;4.07;;
5117;SDS011;2578;51.622;7.046;2023-02-16T05:36:49;7.77;;;6.20;;
5117;SDS011;2578;51.622;7.046;2023-02-16T05:39:15;4.73;;;4.10;;
5117;SDS011;2578;51.622;7.046;2023-02-16T05:41:41;5.13;;;4.53;;
5117;SDS011;2578;51.622;7.046;2023-02-16T05:44:07;10.40;;;4.93;;
5117;SDS011;2578;51.622;7.046;2023-02-16T05:46:34;5.77;;;4.33;;
5117;SDS011;2578;51.622;7.046;2023-02-16T05:49:02;3.40;;;3.10;;
5117;SDS011;2578;51.622;7.046;2023-02-16T05:51:28;10.70;;;6.23;;
5117;SDS011;2578;51.622;7.046;2023-02-16T05:53:54;4.40;;;3.97;;
5117;SDS011;2578;51.622;7.046;2023-02-16T05:56:20;5.70;;;5.13;;
5117;SDS011;2578;51.622;7.046;2023-02-16T05:58:45;10.23;;;7.37;;
5117;SDS011;2578;51.622;7.046;2023-02-16T06:01:11;5.90;;;5.30;;
5117;SDS011;2578;51.622;7.046;2023-02-16T06:03:37;9.10;;;4.50;;
5117;SDS011;2578;51.622;7.046;2023-02-16T06:06:03;5.87;;;5.37;;
5117;SDS011;2578;51.622;7.046;2023-02-16T06:08:30;18.10;;;11.60;;
5117;SDS011;2578;51.622;7.046;2023-02-16T06:10:56;5.43;;;5.03;;
5117;SDS011;2578;51.622;7.046;2023-02-16T06:13:22;8.10;;;6.47;;
5117;SDS011;2578;51.622;7.046;2023-02-16T06:15:50;11.57;;;7.40;;
5117;SDS011;2578;51.622;7.046;2023-02-16T06:18:19;10.07;;;6.43;;
5117;SDS011;2578;51.622;7.046;2023-02-16T06:20:45;5.83;;;5.43;;
5117;SDS011;2578;51.622;7.046;2023-02-16T06:23:11;7.50;;;6.87;;
5117;SDS011;2578;51.622;7.046;2023-02-16T06:25:39;4.60;;;4.13;;
5117;SDS011;2578;51.622;7.046;2023-02-16T06:28:06;5.00;;;4.50;;
5117;SDS011;2578;51.622;7.046;2023-02-16T06:30:31;5.07;;;4.67;;
5117;SDS011;2578;51.622;7.046;2023-02-16T06:32:59;4.43;;;3.63;;
5117;SDS011;2578;51.622;7.046;2023-02-16T06:35:25;7.20;;;6.60;;
5117;SDS011;2578;51.622;7.046;2023-02-16T06:37:50;13.53;;;5.87;;
5117;SDS011;2578;51.622;7.046;2023-02-16T06:40:16;4.77;;;4.37;;
5117;SDS011;2578;51.622;7.046;2023-02-16T06:42:43;5.73;;;5.20;;
5117;SDS011;2578;51.622;7.046;2023-02-16T06:45:09;11.83;;;7.63;;
5117;SDS011;2578;51.622;7.046;2023-02-16T06:47:35;7.47;;;6.87;;
5117;SDS011;2578;51.622;7.046;2023-02-16T06:50:02;5.30;;;4.13;;
5117;SDS011;2578;51.622;7.046;2023-02-16T06:52:28;7.53;;;6.83;;
5117;SDS011;2578;51.622;7.046;2023-02-16T06:54:54;10.30;;;5.00;;
5117;SDS011;2578;51.622;7.046;2023-02-16T06:57:19;7.20;;;5.70;;
5117;SDS011;2578;51.622;7.046;2023-02-16T06:59:45;8.70;;;6.10;;
5117;SDS011;2578;51.622;7.046;2023-02-16T07:02:10;4.20;;;3.80;;
5117;SDS011;2578;51.622;7.046;2023-02-16T07:04:36;5.97;;;5.47;;
5117;SDS011;2578;51.622;7.046;2023-02-16T07:07:02;10.57;;;6.50;;
5117;SDS011;2578;51.622;7.046;2023-02-16T07:09:28;6.70;;;6.10;;
5117;SDS011;2578;51.622;7.046;2023-02-16T07:11:53;26.83;;;6.43;;
5117;SDS011;2578;51.622;7.046;2023-02-16T07:14:19;12.87;;;7.53;;
5117;SDS011;2578;51.622;7.046;2023-02-16T07:16:45;6.10;;;5.53;;
5117;SDS011;2578;51.622;7.046;2023-02-16T07:19:12;4.50;;;4.10;;
5117;SDS011;2578;51.622;7.046;2023-02-16T07:21:40;5.57;;;4.97;;
5117;SDS011;2578;51.622;7.046;2023-02-16T07:24:06;5.70;;;5.20;;
5117;SDS011;2578;51.622;7.046;2023-02-16T07:26:31;6.23;;;5.73;;
5117;SDS011;2578;51.622;7.046;2023-02-16T07:28:57;5.33;;;4.90;;
5117;SDS011;2578;51.622;7.046;2023-02-16T07:31:23;8.77;;;7.87;;
5117;SDS011;2578;51.622;7.046;2023-02-16T07:33:50;8.23;;;7.43;;
5117;SDS011;2578;51.622;7.046;2023-02-16T07:36:16;5.90;;;5.40;;
5117;SDS011;2578;51.622;7.046;2023-02-16T07:38:42;10.37;;;9.50;;
5117;SDS011;2578;51.622;7.046;2023-02-16T07:41:08;6.23;;;5.63;;
5117;SDS011;2578;51.622;7.046;2023-02-16T07:43:34;6.73;;;6.20;;
5117;SDS011;2578;51.622;7.046;2023-02-16T07:46:00;8.23;;;6.67;;
5117;SDS011;2578;51.622;7.046;2023-02-16T07:48:26;8.03;;;7.33;;
5117;SDS011;2578;51.622;7.046;2023-02-16T07:50:51;5.80;;;5.40;;
5117;SDS011;2578;51.622;7.046;2023-02-16T07:53:17;11.63;;;9.17;;
5117;SDS011;2578;51.622;7.046;2023-02-16T07:55:43;6.53;;;6.03;;
5117;SDS011;2578;51.622;7.046;2023-02-16T07:58:10;7.80;;;7.20;;
5117;SDS011;2578;51.622;7.046;2023-02-16T08:00:51;6.53;;;5.83;;
5117;SDS011;2578;51.622;7.046;2023-02-16T08:03:20;6.80;;;6.30;;
5117;SDS011;2578;51.622;7.046;2023-02-16T08:05:46;7.10;;;6.60;;
5117;SDS011;2578;51.622;7.046;2023-02-16T08:08:11;10.77;;;9.70;;
5117;SDS011;2578;51.622;7.046;2023-02-16T08:10:37;8.13;;;7.63;;
5117;SDS011;2578;51.622;7.046;2023-02-16T08:13:02;17.03;;;10.43;;
5117;SDS011;2578;51.622;7.046;2023-02-16T08:15:28;9.23;;;8.53;;
5117;SDS011;2578;51.622;7.046;2023-02-16T08:17:53;15.73;;;14.37;;
5117;SDS011;2578;51.622;7.046;2023-02-16T08:20:19;9.40;;;8.80;;
5117;SDS011;2578;51.622;7.046;2023-02-16T08:22:45;9.67;;;9.07;;
5117;SDS011;2578;51.622;7.046;2023-02-16T08:25:11;9.73;;;9.13;;
5117;SDS011;2578;51.622;7.046;2023-02-16T08:27:39;9.70;;;9.10;;
5117;SDS011;2578;51.622;7.046;2023-02-16T08:30:05;10.50;;;9.70;;
5117;SDS011;2578;51.622;7.046;2023-02-16T08:32:36;10.27;;;9.57;;
5117;SDS011;2578;51.622;7.046;2023-02-16T08:35:04;10.37;;;9.77;;
5117;SDS011;2578;51.622;7.046;2023-02-16T08:37:31;11.57;;;10.77;;
5117;SDS011;2578;51.622;7.046;2023-02-16T08:39:57;12.03;;;11.10;;
5117;SDS011;2578;51.622;7.046;2023-02-16T08:42:25;12.40;;;11.60;;
5117;SDS011;2578;51.622;7.046;2023-02-16T08:44:51;10.73;;;10.03;;
5117;SDS011;2578;51.622;7.046;2023-02-16T08:47:17;12.47;;;11.50;;
5117;SDS011;2578;51.622;7.046;2023-02-16T08:49:44;12.97;;;11.77;;
5117;SDS011;2578;51.622;7.046;2023-02-16T08:52:10;12.57;;;10.53;;
5117;SDS011;2578;51.622;7.046;2023-02-16T08:54:36;11.33;;;10.43;;
5117;SDS011;2578;51.622;7.046;2023-02-16T08:57:03;12.50;;;11.40;;
5117;SDS011;2578;51.622;7.046;2023-02-16T08:59:29;9.50;;;8.90;;
5117;SDS011;2578;51.622;7.046;2023-02-16T09:01:55;11.40;;;10.70;;
5117;SDS011;2578;51.622;7.046;2023-02-16T09:04:22;24.03;;;11.50;;
5117;SDS011;2578;51.622;7.046;2023-02-16T09:06:49;12.30;;;11.50;;
5117;SDS011;2578;51.622;7.046;2023-02-16T09:09:16;10.90;;;10.20;;
5117;SDS011;2578;51.622;7.046;2023-02-16T09:11:42;11.60;;;10.80;;
5117;SDS011;2578;51.622;7.046;2023-02-16T09:14:08;10.40;;;9.80;;
5117;SDS011;2578;51.622;7.046;2023-02-16T09:16:35;11.10;;;10.40;;
5117;SDS011;2578;51.622;7.046;2023-02-16T09:19:03;13.00;;;12.10;;
5117;SDS011;2578;51.622;7.046;2023-02-16T09:21:29;13.40;;;12.50;;
5117;SDS011;2578;51.622;7.046;2023-02-16T09:23:59;15.70;;;14.67;;
5117;SDS011;2578;51.622;7.046;2023-02-16T09:26:29;15.43;;;14.43;;
5117;SDS011;2578;51.622;7.046;2023-02-16T09:28:56;16.37;;;15.27;;
5117;SDS011;2578;51.622;7.046;2023-02-16T09:31:23;14.20;;;13.30;;
5117;SDS011;2578;51.622;7.046;2023-02-16T09:33:53;17.47;;;15.80;;
5117;SDS011;2578;51.622;7.046;2023-02-16T09:36:20;18.53;;;16.97;;
5117;SDS011;2578;51.622;7.046;2023-02-16T09:38:46;14.80;;;13.90;;
5117;SDS011;2578;51.622;7.046;2023-02-16T09:46:34;20.50;;;18.57;;
5117;SDS011;2578;51.622;7.046;2023-02-16T09:49:01;15.60;;;14.33;;
5117;SDS011;2578;51.622;7.046;2023-02-16T09:51:35;17.93;;;16.43;;
5117;SDS011;2578;51.622;7.046;2023-02-16T09:56:39;14.97;;;13.97;;
5117;SDS011;2578;51.622;7.046;2023-02-16T09:59:24;13.60;;;12.80;;
5117;SDS011;2578;51.622;7.046;2023-02-16T10:08:06;15.07;;;13.63;;
5117;SDS011;2578;51.622;7.046;2023-02-16T10:10:43;11.57;;;10.77;;
5117;SDS011;2578;51.622;7.046;2023-02-16T10:13:17;14.83;;;13.57;;
5117;SDS011;2578;51.622;7.046;2023-02-16T10:15:44;38.83;;;12.23;;
5117;SDS011;2578;51.622;7.046;2023-02-16T10:18:44;13.20;;;12.20;;
5117;SDS011;2578;51.622;7.046;2023-02-16T10:21:06;14.70;;;13.47;;
5117;SDS011;2578;51.622;7.046;2023-02-16T10:29:09;17.70;;;15.43;;
5117;SDS011;2578;51.622;7.046;2023-02-16T10:34:20;11.77;;;10.93;;
5117;SDS011;2578;51.622;7.046;2023-02-16T10:44:58;11.43;;;10.60;;
5117;SDS011;2578;51.622;7.046;2023-02-16T10:47:47;12.50;;;11.60;;
5117;SDS011;2578;51.622;7.046;2023-02-16T10:50:23;13.73;;;12.50;;
5117;SDS011;2578;51.622;7.046;2023-02-16T10:53:07;11.50;;;10.70;;
5117;SDS011;2578;51.622;7.046;2023-02-16T10:55:41;13.27;;;12.17;;
5117;SDS011;2578;51.622;7.046;2023-02-16T10:58:18;12.30;;;11.50;;
5117;SDS011;2578;51.622;7.046;2023-02-16T11:00:55;15.50;;;12.83;;
5117;SDS011;2578;51.622;7.046;2023-02-16T11:03:28;13.20;;;12.20;;
5117;SDS011;2578;51.622;7.046;2023-02-16T11:06:21;13.43;;;12.40;;
5117;SDS011;2578;51.622;7.046;2023-02-16T11:08:54;11.50;;;10.40;;
5117;SDS011;2578;51.622;7.046;2023-02-16T11:11:24;13.43;;;12.23;;
5117;SDS011;2578;51.622;7.046;2023-02-16T11:14:04;10.30;;;9.70;;
5117;SDS011;2578;51.622;7.046;2023-02-16T11:16:45;14.13;;;12.73;;
5117;SDS011;2578;51.622;7.046;2023-02-16T11:19:19;11.30;;;10.60;;
5117;SDS011;2578;51.622;7.046;2023-02-16T11:21:52;13.40;;;12.60;;
5117;SDS011;2578;51.622;7.046;2023-02-16T11:29:46;30.03;;;18.20;;
5117;SDS011;2578;51.622;7.046;2023-02-16T11:32:13;12.73;;;11.93;;
5117;SDS011;2578;51.622;7.046;2023-02-16T11:39:40;13.63;;;12.57;;
5117;SDS011;2578;51.622;7.046;2023-02-16T11:42:56;9.77;;;9.13;;
5117;SDS011;2578;51.622;7.046;2023-02-16T11:45:08;11.10;;;10.10;;
5117;SDS011;2578;51.622;7.046;2023-02-16T11:47:50;11.20;;;8.90;;
5117;SDS011;2578;51.622;7.046;2023-02-16T11:55:33;8.60;;;7.43;;
5117;SDS011;2578;51.622;7.046;2023-02-16T11:58:19;6.27;;;5.40;;
5117;SDS011;2578;51.622;7.046;2023-02-16T12:09:06;4.57;;;3.57;;
5117;SDS011;2578;51.622;7.046;2023-02-16T12:14:25;5.33;;;4.37;;
5117;SDS011;2578;51.622;7.046;2023-02-16T12:17:14;6.47;;;4.53;;
5117;SDS011;2578;51.622;7.046;2023-02-16T12:19:45;3.30;;;2.50;;
5117;SDS011;2578;51.622;7.046;2023-02-16T12:25:18;3.50;;;3.17;;
5117;SDS011;2578;51.622;7.046;2023-02-16T12:30:44;12.33;;;8.30;;
5117;SDS011;2578;51.622;7.046;2023-02-16T12:38:54;5.90;;;4.10;;
5117;SDS011;2578;51.622;7.046;2023-02-16T12:44:01;12.17;;;8.53;;
5117;SDS011;2578;51.622;7.046;2023-02-16T12:46:36;8.03;;;6.90;;
5117;SDS011;2578;51.622;7.046;2023-02-16T12:51:49;19.17;;;6.70;;
5117;SDS011;2578;51.622;7.046;2023-02-16T12:54:23;9.20;;;6.13;;
5117;SDS011;2578;51.622;7.046;2023-02-16T12:57:03;23.23;;;13.83;;
5117;SDS011;2578;51.622;7.046;2023-02-16T13:02:13;10.83;;;7.83;;
5117;SDS011;2578;51.622;7.046;2023-02-16T13:05:08;27.47;;;11.73;;
5117;SDS011;2578;51.622;7.046;2023-02-16T13:07:39;4.83;;;4.33;;
5117;SDS011;2578;51.622;7.046;2023-02-16T13:12:40;4.97;;;4.47;;
5117;SDS011;2578;51.622;7.046;2023-02-16T13:15:15;7.53;;;5.00;;
5117;SDS011;2578;51.622;7.046;2023-02-16T13:17:57;9.97;;;7.50;;
5117;SDS011;2578;51.622;7.046;2023-02-16T13:20:27;5.23;;;4.73;;
5117;SDS011;2578;51.622;7.046;2023-02-16T13:36:48;15.60;;;6.90;;
5117;SDS011;2578;51.622;7.046;2023-02-16T13:44:58;5.60;;;3.83;;
5117;SDS011;2578;51.622;7.046;2023-02-16T13:47:37;4.63;;;3.90;;
5117;SDS011;2578;51.622;7.046;2023-02-16T13:50:05;5.50;;;3.50;;
5117;SDS011;2578;51.622;7.046;2023-02-16T13:52:42;23.93;;;7.50;;
5117;SDS011;2578;51.622;7.046;2023-02-16T14:02:58;4.97;;;3.83;;
5117;SDS011;2578;51.622;7.046;2023-02-16T14:05:25;5.63;;;4.30;;
5117;SDS011;2578;51.622;7.046;2023-02-16T14:08:10;8.93;;;4.77;;
5117;SDS011;2578;51.622;7.046;2023-02-16T14:18:41;7.33;;;5.60;;
5117;SDS011;2578;51.622;7.046;2023-02-16T14:24:11;11.90;;;4.30;;
5117;SDS011;2578;51.622;7.046;2023-02-16T14:26:56;14.03;;;9.30;;
5117;SDS011;2578;51.622;7.046;2023-02-16T14:29:26;4.77;;;2.70;;
5117;SDS011;2578;51.622;7.046;2023-02-16T14:32:15;11.93;;;6.20;;
5117;SDS011;2578;51.622;7.046;2023-02-16T14:34:51;10.33;;;6.80;;
5117;SDS011;2578;51.622;7.046;2023-02-16T14:40:04;14.33;;;7.10;;
5117;SDS011;2578;51.622;7.046;2023-02-16T14:43:00;8.83;;;6.77;;
5117;SDS011;2578;51.622;7.046;2023-02-16T14:48:01;8.60;;;7.90;;
5117;SDS011;2578;51.622;7.046;2023-02-16T15:00:53;11.43;;;10.53;;
5117;SDS011;2578;51.622;7.046;2023-02-16T15:03:25;7.40;;;6.87;;
5117;SDS011;2578;51.622;7.046;2023-02-16T15:06:12;9.93;;;9.20;;
5117;SDS011;2578;51.622;7.046;2023-02-16T15:08:45;7.87;;;6.87;;
5117;SDS011;2578;51.622;7.046;2023-02-16T15:11:36;6.33;;;5.83;;
5117;SDS011;2578;51.622;7.046;2023-02-16T15:14:29;5.53;;;5.07;;
5117;SDS011;2578;51.622;7.046;2023-02-16T15:17:03;4.93;;;4.53;;
5117;SDS011;2578;51.622;7.046;2023-02-16T15:19:31;8.73;;;7.23;;
5117;SDS011;2578;51.622;7.046;2023-02-16T15:22:05;9.33;;;8.07;;
5117;SDS011;2578;51.622;7.046;2023-02-16T15:24:37;5.20;;;4.80;;
5117;SDS011;2578;51.622;7.046;2023-02-16T15:27:02;11.87;;;7.40;;
5117;SDS011;2578;51.622;7.046;2023-02-16T15:29:28;5.30;;;4.80;;
5117;SDS011;2578;51.622;7.046;2023-02-16T15:31:54;8.63;;;7.20;;
5117;SDS011;2578;51.622;7.046;2023-02-16T15:34:32;5.50;;;5.10;;
5117;SDS011;2578;51.622;7.046;2023-02-16T15:37:00;5.20;;;4.80;;
5117;SDS011;2578;51.622;7.046;2023-02-16T15:39:43;9.60;;;8.60;;
5117;SDS011;2578;51.622;7.046;2023-02-16T15:44:40;5.97;;;5.47;;
5117;SDS011;2578;51.622;7.046;2023-02-16T15:47:13;9.60;;;5.50;;
5117;SDS011;2578;51.622;7.046;2023-02-16T15:49:41;12.03;;;7.07;;
5117;SDS011;2578;51.622;7.046;2023-02-16T15:52:10;8.50;;;7.50;;
5117;SDS011;2578;51.622;7.046;2023-02-16T15:54:40;9.90;;;7.43;;
5117;SDS011;2578;51.622;7.046;2023-02-16T15:57:11;5.30;;;4.90;;
5117;SDS011;2578;51.622;7.046;2023-02-16T15:59:49;6.70;;;6.10;;
5117;SDS011;2578;51.622;7.046;2023-02-16T16:02:32;5.57;;;5.17;;
5117;SDS011;2578;51.622;7.046;2023-02-16T16:05:01;7.27;;;6.70;;
5117;SDS011;2578;51.622;7.046;2023-02-16T16:07:33;5.37;;;4.87;;
5117;SDS011;2578;51.622;7.046;2023-02-16T16:10:02;9.97;;;5.60;;
5117;SDS011;2578;51.622;7.046;2023-02-16T16:12:37;6.23;;;4.10;;
5117;SDS011;2578;51.622;7.046;2023-02-16T16:15:03;3.93;;;3.53;;
5117;SDS011;2578;51.622;7.046;2023-02-16T16:17:31;4.37;;;3.83;;
5117;SDS011;2578;51.622;7.046;2023-02-16T16:23:02;14.10;;;4.47;;
5117;SDS011;2578;51.622;7.046;2023-02-16T16:28:13;3.60;;;2.80;;
5117;SDS011;2578;51.622;7.046;2023-02-16T16:34:01;3.90;;;2.77;;
5117;SDS011;2578;51.622;7.046;2023-02-16T16:36:36;6.30;;;3.70;;
5117;SDS011;2578;51.622;7.046;2023-02-16T16:39:40;33.57;;;5.73;;
5117;SDS011;2578;51.622;7.046;2023-02-16T16:44:51;3.20;;;2.27;;
5117;SDS011;2578;51.622;7.046;2023-02-16T16:47:29;2.90;;;1.80;;
5117;SDS011;2578;51.622;7.046;2023-02-16T16:52:42;5.60;;;2.50;;
5117;SDS011;2578;51.622;7.046;2023-02-16T16:57:46;12.03;;;6.10;;
5117;SDS011;2578;51.622;7.046;2023-02-16T17:00:17;5.17;;;4.67;;
5117;SDS011;2578;51.622;7.046;2023-02-16T17:02:44;6.13;;;3.30;;
5117;SDS011;2578;51.622;7.046;2023-02-16T17:05:10;7.47;;;4.63;;
5117;SDS011;2578;51.622;7.046;2023-02-16T17:07:36;4.37;;;3.13;;
5117;SDS011;2578;51.622;7.046;2023-02-16T17:10:02;4.23;;;3.60;;
5117;SDS011;2578;51.622;7.046;2023-02-16T17:12:29;3.57;;;3.23;;
5117;SDS011;2578;51.622;7.046;2023-02-16T17:14:54;3.20;;;2.50;;
5117;SDS011;2578;51.622;7.046;2023-02-16T17:17:20;4.27;;;3.87;;
5117;SDS011;2578;51.622;7.046;2023-02-16T17:19:46;5.20;;;4.23;;
5117;SDS011;2578;51.622;7.046;2023-02-16T17:22:12;4.20;;;3.40;;
5117;SDS011;2578;51.622;7.046;2023-02-16T17:24:39;4.13;;;3.73;;
5117;SDS011;2578;51.622;7.046;2023-02-16T17:27:05;4.03;;;3.63;;
5117;SDS011;2578;51.622;7.046;2023-02-16T17:29:31;13.73;;;5.93;;
5117;SDS011;2578;51.622;7.046;2023-02-16T17:31:57;4.33;;;3.80;;
5117;SDS011;2578;51.622;7.046;2023-02-16T17:34:22;4.47;;;4.07;;
5117;SDS011;2578;51.622;7.046;2023-02-16T17:36:57;3.87;;;3.47;;
5117;SDS011;2578;51.622;7.046;2023-02-16T17:39:28;6.13;;;4.37;;
5117;SDS011;2578;51.622;7.046;2023-02-16T17:41:54;4.37;;;3.97;;
5117;SDS011;2578;51.622;7.046;2023-02-16T17:44:20;3.60;;;3.30;;
5117;SDS011;2578;51.622;7.046;2023-02-16T17:46:45;4.90;;;3.93;;
5117;SDS011;2578;51.622;7.046;2023-02-16T17:49:11;8.80;;;6.63;;
5117;SDS011;2578;51.622;7.046;2023-02-16T17:51:38;3.40;;;3.07;;
5117;SDS011;2578;51.622;7.046;2023-02-16T17:54:04;4.83;;;4.33;;
5117;SDS011;2578;51.622;7.046;2023-02-16T17:56:33;20.63;;;10.40;;
5117;SDS011;2578;51.622;7.046;2023-02-16T17:58:59;5.00;;;4.50;;
5117;SDS011;2578;51.622;7.046;2023-02-16T18:01:25;10.90;;;7.20;;
5117;SDS011;2578;51.622;7.046;2023-02-16T18:03:51;4.10;;;3.70;;
5117;SDS011;2578;51.622;7.046;2023-02-16T18:06:17;7.20;;;6.33;;
5117;SDS011;2578;51.622;7.046;2023-02-16T18:08:46;5.93;;;5.37;;
5117;SDS011;2578;51.622;7.046;2023-02-16T18:11:12;7.07;;;6.47;;
5117;SDS011;2578;51.622;7.046;2023-02-16T18:13:38;5.20;;;4.70;;
5117;SDS011;2578;51.622;7.046;2023-02-16T18:16:04;5.10;;;4.70;;
5117;SDS011;2578;51.622;7.046;2023-02-16T18:18:31;5.93;;;5.43;;
5117;SDS011;2578;51.622;7.046;2023-02-16T18:21:00;11.07;;;9.40;;
5117;SDS011;2578;51.622;7.046;2023-02-16T18:23:26;6.30;;;5.70;;
5117;SDS011;2578;51.622;7.046;2023-02-16T18:25:52;5.30;;;4.90;;
5117;SDS011;2578;51.622;7.046;2023-02-16T18:28:18;10.60;;;8.13;;
5117;SDS011;2578;51.622;7.046;2023-02-16T18:30:49;6.90;;;6.30;;
5117;SDS011;2578;51.622;7.046;2023-02-16T18:33:15;7.97;;;6.67;;
5117;SDS011;2578;51.622;7.046;2023-02-16T18:35:42;6.37;;;5.23;;
5117;SDS011;2578;51.622;7.046;2023-02-16T18:38:08;5.63;;;3.77;;